createdAt,value
2023-01-30T00:01:05.662Z,100806.66
2023-01-30T00:03:34.261Z,100790.81
2023-01-30T00:06:02.169Z,100776.69
2023-01-30T00:08:31.445Z,100770.47
2023-01-30T00:11:05.187Z,100755.66
2023-01-30T00:13:33.369Z,100759.94
2023-01-30T00:16:01.598Z,100764.47
2023-01-30T00:18:29.728Z,100755.81
2023-01-30T00:20:58.353Z,100753.97
2023-01-30T00:23:27.410Z,100768.78
2023-01-30T00:25:56.717Z,100761.75
2023-01-30T00:28:25.154Z,100768.94
2023-01-30T00:30:54.402Z,100757.53
2023-01-30T00:33:26.935Z,100761.91
2023-01-30T00:35:56.986Z,100751.41
2023-01-30T00:38:25.750Z,100766.25
2023-01-30T00:40:53.747Z,100745.16
2023-01-30T00:43:40.313Z,100756.66
2023-01-30T00:46:32.574Z,100729.44
2023-01-30T00:49:01.122Z,100713.59
2023-01-30T00:51:28.920Z,100718.94
2023-01-30T00:53:56.771Z,100727.41
2023-01-30T00:56:24.509Z,100704.81
2023-01-30T00:58:53.698Z,100698.78
2023-01-30T01:01:21.515Z,100697.94
2023-01-30T01:03:50.396Z,100683.91
2023-01-30T01:06:18.375Z,100680.41
2023-01-30T01:08:46.641Z,100668.09
2023-01-30T01:11:24.195Z,100667.25
2023-01-30T01:13:58.371Z,100679.44
2023-01-30T01:16:27.159Z,100670.50
2023-01-30T01:18:55.548Z,100648.91
2023-01-30T01:21:24.233Z,100631.13
2023-01-30T01:23:55.278Z,100626.13
2023-01-30T01:26:23.234Z,100609.28
2023-01-30T01:28:51.032Z,100602.28
2023-01-30T01:31:20.348Z,100599.63
2023-01-30T01:33:49.061Z,100566.25
2023-01-30T01:36:42.331Z,100547.13
2023-01-30T01:39:04.834Z,100516.41
2023-01-30T01:41:31.739Z,100510.09
2023-01-30T01:44:02.881Z,100515.38
2023-01-30T01:46:36.229Z,100514.41
2023-01-30T01:49:09.027Z,100532.97
2023-01-30T01:51:41.337Z,100530.13
2023-01-30T01:54:13.783Z,100513.66
2023-01-30T01:56:45.007Z,100507.47
2023-01-30T01:59:20.023Z,100501.38
2023-01-30T02:01:50.769Z,100504.94
2023-01-30T02:04:38.797Z,100513.25
2023-01-30T02:07:06.976Z,100504.66
2023-01-30T02:09:34.720Z,100487.03
2023-01-30T02:12:05.204Z,100492.44
2023-01-30T02:14:35.302Z,100484.63
2023-01-30T02:17:04.491Z,100487.13
2023-01-30T02:19:41.244Z,100494.00
2023-01-30T02:22:44.595Z,100496.69
2023-01-30T02:25:47.623Z,100499.31
2023-01-30T02:28:44.329Z,100481.91
2023-01-30T02:31:25.148Z,100467.66
2023-01-30T02:34:05.463Z,100488.16
2023-01-30T02:36:45.276Z,100487.50
2023-01-30T02:39:26.743Z,100460.00
2023-01-30T02:42:01.569Z,100449.72
2023-01-30T02:44:37.583Z,100456.00
2023-01-30T02:47:12.458Z,100436.66
2023-01-30T02:49:43.358Z,100439.03
2023-01-30T02:52:13.823Z,100436.56
2023-01-30T02:54:41.623Z,100434.09
2023-01-30T02:57:19.518Z,100433.63
2023-01-30T02:59:50.429Z,100433.19
2023-01-30T03:02:42.921Z,100417.31
2023-01-30T03:05:44.906Z,100408.13
2023-01-30T03:08:24.060Z,100420.06
2023-01-30T03:10:58.143Z,100398.25
2023-01-30T03:13:35.535Z,100403.25
2023-01-30T03:16:08.323Z,100396.97
2023-01-30T03:18:41.786Z,100391.50
2023-01-30T03:21:09.588Z,100381.78
2023-01-30T03:23:37.361Z,100349.63
2023-01-30T03:26:07.412Z,100349.72
2023-01-30T03:28:35.945Z,100339.06
2023-01-30T03:31:05.612Z,100307.94
2023-01-30T03:33:33.434Z,100302.75
2023-01-30T03:36:02.893Z,100320.59
2023-01-30T03:38:30.931Z,100306.97
2023-01-30T03:40:58.817Z,100311.09
2023-01-30T03:43:26.552Z,100306.72
2023-01-30T03:45:54.379Z,100300.28
2023-01-30T03:48:22.378Z,100303.31
2023-01-30T03:50:50.422Z,100300.22
2023-01-30T03:53:19.743Z,100286.31
2023-01-30T03:55:47.453Z,100284.00
2023-01-30T03:58:15.245Z,100302.72
2023-01-30T04:00:43.400Z,100291.25
2023-01-30T04:03:11.145Z,100278.47
2023-01-30T04:05:39.232Z,100287.47
2023-01-30T04:08:09.168Z,100282.53
2023-01-30T04:10:38.443Z,100280.03
2023-01-30T04:13:06.353Z,100277.81
2023-01-30T04:15:34.607Z,100271.50
2023-01-30T04:18:37.163Z,100271.59
2023-01-30T04:21:12.726Z,100243.00
2023-01-30T04:23:41.342Z,100257.13
2023-01-30T04:26:11.930Z,100251.44
2023-01-30T04:28:41.604Z,100242.34
2023-01-30T04:31:09.488Z,100248.97
2023-01-30T04:33:43.496Z,100248.00
2023-01-30T04:36:13.613Z,100244.16
2023-01-30T04:38:42.435Z,100242.03
2023-01-30T04:41:11.528Z,100248.78
2023-01-30T04:43:42.560Z,100238.44
2023-01-30T04:46:28.029Z,100238.38
2023-01-30T04:48:56.840Z,100247.66
2023-01-30T04:51:24.574Z,100232.78
2023-01-30T04:53:52.332Z,100239.91
2023-01-30T04:56:21.589Z,100233.63
2023-01-30T04:58:50.705Z,100213.28
2023-01-30T05:01:23.867Z,100229.47
2023-01-30T05:03:52.394Z,100228.63
2023-01-30T05:06:20.258Z,100222.41
2023-01-30T05:08:49.489Z,100211.44
2023-01-30T05:11:17.339Z,100209.13
2023-01-30T05:13:46.873Z,100198.97
2023-01-30T05:16:15.751Z,100202.09
2023-01-30T05:18:43.553Z,100210.94
2023-01-30T05:21:13.030Z,100205.59
2023-01-30T05:23:40.771Z,100234.19
2023-01-30T05:26:08.990Z,100192.56
2023-01-30T05:28:36.945Z,100203.75
2023-01-30T05:31:08.007Z,100195.66
2023-01-30T05:33:36.246Z,100207.66
2023-01-30T05:36:04.042Z,100207.06
2023-01-30T05:38:31.790Z,100212.22
2023-01-30T05:41:01.043Z,100218.13
2023-01-30T05:43:29.146Z,100218.03
2023-01-30T05:45:58.378Z,100209.75
2023-01-30T05:48:28.672Z,100198.44
2023-01-30T05:50:59.055Z,100219.56
2023-01-30T05:53:29.705Z,100209.31
2023-01-30T05:55:57.525Z,100204.00
2023-01-30T05:58:25.781Z,100211.84
2023-01-30T06:00:53.780Z,100208.44
2023-01-30T06:03:21.822Z,100199.06
2023-01-30T06:05:51.022Z,100181.25
2023-01-30T06:08:18.856Z,100177.81
2023-01-30T06:10:46.618Z,100186.50
2023-01-30T06:13:14.319Z,100203.38
2023-01-30T06:15:42.183Z,100201.72
2023-01-30T06:18:09.949Z,100208.44
2023-01-30T06:20:37.687Z,100201.00
2023-01-30T06:23:06.786Z,100219.75
2023-01-30T06:25:34.516Z,100205.69
2023-01-30T06:28:02.180Z,100204.16
2023-01-30T06:30:30.021Z,100190.53
2023-01-30T06:32:57.746Z,100221.03
2023-01-30T06:35:25.612Z,100234.38
2023-01-30T06:37:53.373Z,100230.00
2023-01-30T06:40:22.658Z,100242.75
2023-01-30T06:42:50.626Z,100240.63
2023-01-30T06:45:20.403Z,100264.81
2023-01-30T06:47:49.630Z,100262.56
2023-01-30T06:50:18.923Z,100276.19
2023-01-30T06:52:48.989Z,100272.00
2023-01-30T06:55:19.424Z,100260.75
2023-01-30T06:57:49.576Z,100273.06
2023-01-30T07:00:19.849Z,100270.00
2023-01-30T07:02:48.441Z,100278.78
2023-01-30T07:05:16.712Z,100277.31
2023-01-30T07:07:44.754Z,100283.63
2023-01-30T07:10:13.071Z,100274.53
2023-01-30T07:12:41.024Z,100278.63
2023-01-30T07:15:10.983Z,100293.31
2023-01-30T07:17:40.563Z,100289.09
2023-01-30T07:20:09.543Z,100292.91
2023-01-30T07:22:37.455Z,100288.56
2023-01-30T07:25:06.316Z,100295.47
2023-01-30T07:27:34.383Z,100301.34
2023-01-30T07:30:02.213Z,100297.22
2023-01-30T07:32:31.362Z,100302.16
2023-01-30T07:34:59.212Z,100310.19
2023-01-30T07:37:27.100Z,100309.81
2023-01-30T07:39:54.851Z,100303.75
2023-01-30T07:42:22.553Z,100300.66
2023-01-30T07:44:50.332Z,100292.19
2023-01-30T07:47:20.069Z,100303.06
2023-01-30T07:49:49.329Z,100313.88
2023-01-30T07:52:17.557Z,100312.00
2023-01-30T07:54:45.333Z,100306.91
2023-01-30T07:57:13.138Z,100315.25
2023-01-30T07:59:41.220Z,100327.19
2023-01-30T08:02:10.841Z,100325.31
2023-01-30T08:04:39.470Z,100332.19
2023-01-30T08:07:08.665Z,100333.03
2023-01-30T08:09:36.441Z,100332.31
2023-01-30T08:12:04.364Z,100344.72
2023-01-30T08:14:32.249Z,100344.66
2023-01-30T08:17:00.502Z,100346.94
2023-01-30T08:19:28.306Z,100362.22
2023-01-30T08:21:56.075Z,100358.66
2023-01-30T08:24:25.332Z,100369.06
2023-01-30T08:26:53.306Z,100368.53
2023-01-30T08:29:21.349Z,100359.91
2023-01-30T08:31:49.434Z,100366.09
2023-01-30T08:34:17.339Z,100375.63
2023-01-30T08:36:46.706Z,100371.56
2023-01-30T08:39:14.949Z,100372.03
2023-01-30T08:41:44.321Z,100380.09
2023-01-30T08:44:12.510Z,100375.59
2023-01-30T08:46:40.715Z,100378.47
2023-01-30T08:49:08.663Z,100365.53
2023-01-30T08:51:36.608Z,100379.13
2023-01-30T08:54:04.509Z,100370.13
2023-01-30T08:56:32.258Z,100375.91
2023-01-30T08:59:01.635Z,100374.16
2023-01-30T09:01:29.581Z,100373.78
2023-01-30T09:03:58.340Z,100376.13
2023-01-30T09:06:26.469Z,100383.41
2023-01-30T09:08:54.354Z,100386.22
2023-01-30T09:11:22.208Z,100384.31
2023-01-30T09:13:50.307Z,100379.94
2023-01-30T09:16:19.711Z,100378.19
2023-01-30T09:18:47.581Z,100378.34
2023-01-30T09:21:15.799Z,100397.41
2023-01-30T09:23:43.724Z,100372.63
2023-01-30T09:26:11.581Z,100383.31
2023-01-30T09:28:39.450Z,100379.38
2023-01-30T09:31:07.313Z,100377.63
2023-01-30T09:33:36.521Z,100374.78
2023-01-30T09:36:04.853Z,100377.94
2023-01-30T09:38:32.584Z,100378.06
2023-01-30T09:41:18.041Z,100370.91
2023-01-30T09:44:00.813Z,100400.50
2023-01-30T09:46:36.842Z,100395.75
2023-01-30T09:49:20.918Z,100391.91
2023-01-30T09:52:00.767Z,100392.13
2023-01-30T09:54:31.960Z,100400.81
2023-01-30T09:57:21.851Z,100385.88
2023-01-30T09:59:59.744Z,100386.31
2023-01-30T10:02:41.729Z,100387.63
2023-01-30T10:05:11.240Z,100380.41
2023-01-30T10:07:56.290Z,100380.84
2023-01-30T10:10:38.501Z,100380.69
2023-01-30T10:13:13.230Z,100385.75
2023-01-30T10:15:51.844Z,100393.75
2023-01-30T10:18:56.491Z,100387.03
2023-01-30T10:21:40.020Z,100384.06
2023-01-30T10:24:30.829Z,100385.56
2023-01-30T10:26:59.358Z,100382.44
2023-01-30T10:29:31.425Z,100387.44
2023-01-30T10:32:03.646Z,100376.63
2023-01-30T10:34:35.581Z,100370.13
2023-01-30T10:37:09.888Z,100367.78
2023-01-30T10:39:54.988Z,100359.34
2023-01-30T10:42:30.458Z,100361.06
2023-01-30T10:45:07.748Z,100347.06
2023-01-30T10:47:57.713Z,100342.78
2023-01-30T10:50:32.130Z,100338.63
2023-01-30T10:53:07.986Z,100331.84
2023-01-30T10:55:41.793Z,100335.00
2023-01-30T10:58:18.982Z,100362.41
2023-01-30T11:00:53.334Z,100359.63
2023-01-30T11:03:32.239Z,100358.75
2023-01-30T11:06:02.963Z,100352.34
2023-01-30T11:08:34.395Z,100361.22
2023-01-30T11:11:21.252Z,100364.38
2023-01-30T11:13:49.177Z,100363.09
2023-01-30T11:16:17.560Z,100360.78
2023-01-30T11:21:43.386Z,100341.72
2023-01-30T11:24:19.406Z,100329.59
2023-01-30T11:26:48.844Z,100332.91
2023-01-30T11:29:25.696Z,100292.06
2023-01-30T11:31:54.507Z,100304.94
2023-01-30T11:34:24.082Z,100300.97
2023-01-30T11:36:52.606Z,100314.94
2023-01-30T11:39:24.687Z,100316.69
2023-01-30T11:42:04.679Z,100302.81
2023-01-30T11:44:35.747Z,100308.44
2023-01-30T11:47:08.474Z,100297.63
2023-01-30T11:49:47.161Z,100299.00
2023-01-30T11:52:25.273Z,100302.50
2023-01-30T11:55:00.949Z,100281.78
2023-01-30T11:57:28.891Z,100314.41
2023-01-30T11:59:59.137Z,100316.22
2023-01-30T12:02:30.743Z,100313.84
2023-01-30T12:05:02.968Z,100304.03
2023-01-30T12:07:32.756Z,100299.06
2023-01-30T12:10:18.580Z,100296.25
2023-01-30T12:12:52.269Z,100315.50
2023-01-30T12:15:25.812Z,100173.66
2023-01-30T12:18:01.258Z,99839.97
2023-01-30T12:20:39.465Z,99850.63
2023-01-30T12:23:14.301Z,99763.16
2023-01-30T12:25:56.346Z,99898.50
2023-01-30T12:28:30.784Z,100002.94
2023-01-30T12:31:09.601Z,99791.53
2023-01-30T12:33:37.675Z,99884.59
2023-01-30T12:36:18.065Z,100052.50
2023-01-30T12:39:04.752Z,100042.38
2023-01-30T12:41:48.010Z,99641.09
2023-01-30T12:44:29.481Z,99687.34
2023-01-30T12:47:15.738Z,99733.38
2023-01-30T12:50:07.525Z,99755.16
2023-01-30T12:52:51.774Z,99799.88
2023-01-30T12:55:34.693Z,99823.69
2023-01-30T12:58:13.927Z,99864.03
2023-01-30T13:00:53.538Z,99895.69
2023-01-30T13:03:31.606Z,99976.25
2023-01-30T13:06:11.853Z,100141.44
2023-01-30T13:08:59.304Z,100230.22
2023-01-30T13:11:46.332Z,100284.94
2023-01-30T13:14:27.371Z,100298.09
2023-01-30T13:17:07.547Z,100312.56
2023-01-30T13:19:44.300Z,100313.88
2023-01-30T13:22:22.838Z,100308.41
2023-01-30T13:25:05.165Z,100332.81
2023-01-30T13:27:37.947Z,100328.78
2023-01-30T13:30:14.102Z,100334.16
2023-01-30T13:32:46.904Z,100333.97
2023-01-30T13:35:21.227Z,100337.22
2023-01-30T13:37:52.035Z,100343.31
2023-01-30T13:40:22.838Z,100340.88
2023-01-30T13:42:57.699Z,100337.50
2023-01-30T13:45:30.545Z,100354.66
2023-01-30T13:48:12.235Z,100359.81
2023-01-30T13:50:57.193Z,100365.41
2023-01-30T13:53:32.372Z,100370.66
2023-01-30T13:56:27.122Z,100365.28
2023-01-30T13:59:03.815Z,100381.50
2023-01-30T14:02:07.362Z,100383.81
2023-01-30T14:04:48.472Z,100398.25
2023-01-30T14:07:24.482Z,100420.59
2023-01-30T14:10:06.763Z,100414.53
2023-01-30T14:12:37.828Z,100437.56
2023-01-30T14:15:20.053Z,100448.84
2023-01-30T14:17:59.356Z,100459.34
2023-01-30T14:20:30.971Z,100464.84
2023-01-30T14:23:00.241Z,100483.53
2023-01-30T14:25:35.673Z,100473.66
2023-01-30T14:28:51.965Z,100510.22
2023-01-30T14:31:53.810Z,100513.75
2023-01-30T14:35:16.919Z,100505.28
2023-01-30T14:37:51.653Z,100513.00
2023-01-30T14:40:48.499Z,100533.13
2023-01-30T14:43:37.213Z,100537.09
2023-01-30T14:46:08.751Z,100551.75
2023-01-30T14:48:44.504Z,100559.53
2023-01-30T14:51:22.572Z,100561.16
2023-01-30T14:53:57.777Z,100550.00
2023-01-30T14:56:54.142Z,100566.16
2023-01-30T14:59:26.355Z,100562.38
2023-01-30T15:01:56.963Z,100572.53
2023-01-30T15:04:27.211Z,100577.09
2023-01-30T15:06:56.693Z,100567.78
2023-01-30T15:09:29.072Z,100569.63
2023-01-30T15:12:11.944Z,100561.44
2023-01-30T15:14:49.082Z,100573.31
2023-01-30T15:17:26.760Z,100590.97
2023-01-30T15:20:26.120Z,100587.94
2023-01-30T15:23:11.846Z,100606.47
2023-01-30T15:26:04.342Z,100613.13
2023-01-30T15:28:40.098Z,100612.94
2023-01-30T15:31:12.124Z,100606.09
2023-01-30T15:33:47.245Z,100614.47
2023-01-30T15:36:25.994Z,100644.66
2023-01-30T15:38:59.039Z,100643.09
2023-01-30T15:41:30.231Z,100650.63
2023-01-30T15:44:21.775Z,100665.38
2023-01-30T15:46:56.824Z,100672.38
2023-01-30T15:49:44.582Z,100679.00
2023-01-30T15:52:16.114Z,100667.44
2023-01-30T15:54:51.155Z,100694.19
2023-01-30T15:57:24.695Z,100685.44
2023-01-30T15:59:55.328Z,100697.06
2023-01-30T16:02:29.981Z,100709.13
2023-01-30T16:05:15.281Z,100709.22
2023-01-30T16:07:43.816Z,100699.13
2023-01-30T16:10:15.408Z,100718.56
2023-01-30T16:12:45.097Z,100728.50
2023-01-30T16:15:27.079Z,100715.09
2023-01-30T16:18:04.395Z,100741.94
2023-01-30T16:20:55.260Z,100740.75
2023-01-30T16:23:31.526Z,100750.38
2023-01-30T16:25:59.991Z,100759.53
2023-01-30T16:28:31.373Z,100779.00
2023-01-30T16:31:01.402Z,100764.94
2023-01-30T16:33:36.007Z,100758.91
2023-01-30T16:36:04.642Z,100767.41
2023-01-30T16:38:38.012Z,100765.50
2023-01-30T16:41:06.486Z,100775.69
2023-01-30T16:43:35.567Z,100776.06
2023-01-30T16:46:42.669Z,100793.47
2023-01-30T16:49:18.257Z,100796.88
2023-01-30T16:51:46.690Z,100804.50
2023-01-30T16:54:21.841Z,100823.81
2023-01-30T16:56:52.978Z,100836.13
2023-01-30T16:59:32.201Z,100814.47
2023-01-30T17:02:00.916Z,100822.38
2023-01-30T17:04:31.016Z,100832.66
2023-01-30T17:07:01.458Z,100836.69
2023-01-30T17:09:42.997Z,100841.09
2023-01-30T17:12:44.225Z,100847.91
2023-01-30T17:15:40.483Z,100869.97
2023-01-30T17:18:09.543Z,100873.13
2023-01-30T17:20:47.446Z,100863.91
2023-01-30T17:23:20.208Z,100881.19
2023-01-30T17:25:49.795Z,100882.78
2023-01-30T17:28:21.413Z,100889.06
2023-01-30T17:30:51.373Z,100898.94
2023-01-30T17:33:19.318Z,100912.78
2023-01-30T17:35:47.314Z,100908.94
2023-01-30T17:38:15.096Z,100916.66
2023-01-30T17:40:43.622Z,100907.28
2023-01-30T17:43:13.033Z,100930.16
2023-01-30T17:45:41.222Z,100944.28
2023-01-30T17:48:12.326Z,100943.06
2023-01-30T17:50:40.165Z,100955.03
2023-01-30T17:53:08.325Z,100949.81
2023-01-30T17:55:36.825Z,100952.19
2023-01-30T17:58:04.829Z,100957.53
2023-01-30T18:00:32.537Z,100966.03
2023-01-30T18:03:00.533Z,100959.09
2023-01-30T18:05:29.729Z,100970.75
2023-01-30T18:07:57.543Z,100967.59
2023-01-30T18:10:25.924Z,100966.22
2023-01-30T18:12:53.695Z,100962.75
2023-01-30T18:15:21.595Z,100983.97
2023-01-30T18:17:50.916Z,100992.50
2023-01-30T18:20:20.935Z,100998.63
2023-01-30T18:22:50.407Z,101004.06
2023-01-30T18:25:18.821Z,101011.34
2023-01-30T18:27:48.026Z,101015.97
2023-01-30T18:30:18.181Z,101020.13
2023-01-30T18:32:53.632Z,101021.53
2023-01-30T18:35:22.494Z,101025.75
2023-01-30T18:37:52.044Z,101025.09
2023-01-30T18:40:20.198Z,101031.56
2023-01-30T18:42:48.423Z,101042.72
2023-01-30T18:45:16.169Z,101045.47
2023-01-30T18:47:43.943Z,101054.09
2023-01-30T18:50:12.412Z,101052.31
2023-01-30T18:52:40.184Z,101065.56
2023-01-30T18:55:09.886Z,101058.91
2023-01-30T18:57:37.707Z,101074.25
2023-01-30T19:00:06.397Z,101072.63
2023-01-30T19:02:34.271Z,101094.25
2023-01-30T19:05:02.062Z,101080.59
2023-01-30T19:07:29.777Z,101090.22
2023-01-30T19:09:57.571Z,101082.09
2023-01-30T19:12:43.964Z,101082.88
2023-01-30T19:15:12.034Z,101083.31
2023-01-30T19:17:39.807Z,101088.16
2023-01-30T19:20:11.011Z,101100.19
2023-01-30T19:22:39.356Z,101093.72
2023-01-30T19:25:08.334Z,101091.41
2023-01-30T19:27:38.914Z,101099.16
2023-01-30T19:30:08.103Z,101096.00
2023-01-30T19:32:36.141Z,101094.38
2023-01-30T19:35:04.289Z,101105.63
2023-01-30T19:37:32.049Z,101101.41
2023-01-30T19:39:59.965Z,101108.59
2023-01-30T19:42:27.970Z,101112.56
2023-01-30T19:44:57.222Z,101114.81
2023-01-30T19:47:25.042Z,101119.22
2023-01-30T19:49:53.867Z,101123.19
2023-01-30T19:52:21.710Z,101125.47
2023-01-30T19:54:49.498Z,101129.72
2023-01-30T19:57:17.298Z,101127.16
2023-01-30T19:59:45.258Z,101125.28
2023-01-30T20:02:15.128Z,101127.81
2023-01-30T20:04:42.878Z,101149.00
2023-01-30T20:07:10.668Z,101128.53
2023-01-30T20:09:38.685Z,101134.03
2023-01-30T20:12:07.130Z,101143.97
2023-01-30T20:14:34.980Z,101156.72
2023-01-30T20:17:02.764Z,101156.78
2023-01-30T20:19:31.995Z,101167.38
2023-01-30T20:22:00.025Z,101167.22
2023-01-30T20:24:28.010Z,101164.50
2023-01-30T20:26:55.900Z,101171.38
2023-01-30T20:29:23.848Z,101172.13
2023-01-30T20:31:54.390Z,101166.22
2023-01-30T20:34:22.580Z,101174.06
2023-01-30T20:36:52.263Z,101164.56
2023-01-30T20:39:20.775Z,101170.78
2023-01-30T20:41:48.733Z,101187.75
2023-01-30T20:44:16.402Z,101177.41
2023-01-30T20:46:46.067Z,101192.16
2023-01-30T20:49:15.470Z,101189.53
2023-01-30T20:51:43.812Z,101191.66
2023-01-30T20:54:14.759Z,101192.16
2023-01-30T20:56:44.604Z,101209.44
2023-01-30T20:59:14.956Z,101200.34
2023-01-30T21:01:42.952Z,101212.88
2023-01-30T21:04:13.708Z,101218.19
2023-01-30T21:06:45.941Z,101223.41
2023-01-30T21:09:17.700Z,101203.09
2023-01-30T21:11:45.548Z,101228.56
2023-01-30T21:14:13.972Z,101218.59
2023-01-30T21:16:42.140Z,101223.00
2023-01-30T21:19:13.857Z,101227.75
2023-01-30T21:21:43.776Z,101230.13
2023-01-30T21:24:14.453Z,101242.03
2023-01-30T21:26:46.441Z,101232.84
2023-01-30T21:29:15.760Z,101233.06
2023-01-30T21:31:44.592Z,101243.38
2023-01-30T21:34:13.536Z,101254.78
2023-01-30T21:36:41.999Z,101253.41
2023-01-30T21:39:31.377Z,101259.22
2023-01-30T21:42:18.918Z,101248.88
2023-01-30T21:44:47.734Z,101271.94
2023-01-30T21:47:15.457Z,101253.91
2023-01-30T21:49:45.261Z,101250.53
2023-01-30T21:52:12.987Z,101247.13
2023-01-30T21:54:40.739Z,101258.22
2023-01-30T21:57:09.845Z,101252.19
2023-01-30T21:59:37.625Z,101259.84
2023-01-30T22:02:05.529Z,101269.03
2023-01-30T22:04:35.516Z,101269.00
2023-01-30T22:07:06.448Z,101276.97
2023-01-30T22:09:34.621Z,101285.53
2023-01-30T22:12:02.394Z,101285.81
2023-01-30T22:14:33.205Z,101269.78
2023-01-30T22:17:01.237Z,101279.66
2023-01-30T22:19:35.018Z,101257.72
2023-01-30T22:22:02.896Z,101269.97
2023-01-30T22:24:30.737Z,101252.41
2023-01-30T22:26:58.474Z,101275.56
2023-01-30T22:29:26.231Z,101279.66
2023-01-30T22:31:55.434Z,101276.00
2023-01-30T22:34:23.272Z,101291.84
2023-01-30T22:36:51.634Z,101298.56
2023-01-30T22:39:19.395Z,101294.34
2023-01-30T22:41:47.092Z,101300.91
2023-01-30T22:44:14.876Z,101294.59
2023-01-30T22:46:44.253Z,101298.63
2023-01-30T22:49:13.491Z,101310.66
2023-01-30T22:51:43.406Z,101304.16
2023-01-30T22:54:15.503Z,101311.06
2023-01-30T22:56:45.081Z,101300.34
2023-01-30T22:59:13.215Z,101308.59
2023-01-30T23:01:42.514Z,101303.41
2023-01-30T23:04:14.114Z,101314.97
2023-01-30T23:06:42.981Z,101311.03
2023-01-30T23:09:14.986Z,101319.09
2023-01-30T23:12:05.319Z,101322.41
2023-01-30T23:14:33.087Z,101315.31
2023-01-30T23:17:00.794Z,101324.44
2023-01-30T23:19:29.070Z,101322.59
2023-01-30T23:21:56.783Z,101316.19
2023-01-30T23:24:24.454Z,101323.72
2023-01-30T23:26:52.709Z,101313.81
2023-01-30T23:29:21.307Z,101317.31
2023-01-30T23:31:49.308Z,101319.34
2023-01-30T23:34:19.111Z,101313.88
2023-01-30T23:36:48.313Z,101323.59
2023-01-30T23:39:16.000Z,101315.66
2023-01-30T23:41:44.282Z,101306.84
2023-01-30T23:44:12.031Z,101310.50
2023-01-30T23:46:41.148Z,101308.03
2023-01-30T23:49:10.590Z,101316.38
2023-01-30T23:51:40.731Z,101317.72
2023-01-30T23:54:10.506Z,101302.66
2023-01-30T23:56:40.281Z,101305.19
2023-01-30T23:59:08.079Z,101310.41
